createdAt,value
2018-03-18T00:02:20.629Z,45.10
2018-03-18T00:04:49.656Z,44.67
2018-03-18T00:07:17.917Z,43.97
2018-03-18T00:09:46.179Z,41.83
2018-03-18T00:12:15.210Z,42.17
2018-03-18T00:14:43.468Z,48.53
2018-03-18T00:17:12.496Z,44.10
2018-03-18T00:19:40.770Z,42.03
2018-03-18T00:22:09.017Z,39.03
2018-03-18T00:24:38.042Z,38.72
2018-03-18T00:27:06.310Z,36.03
2018-03-18T00:29:34.568Z,40.35
2018-03-18T00:32:02.831Z,42.30
2018-03-18T00:34:31.099Z,44.27
2018-03-18T00:36:59.348Z,41.50
2018-03-18T00:39:27.614Z,45.47
2018-03-18T00:41:56.645Z,41.00
2018-03-18T00:44:24.902Z,39.10
2018-03-18T00:46:53.163Z,38.60
2018-03-18T00:49:22.189Z,36.90
2018-03-18T00:52:01.066Z,40.07
2018-03-18T00:54:29.332Z,37.23
2018-03-18T00:56:57.590Z,42.60
2018-03-18T00:59:25.849Z,43.67
2018-03-18T01:01:54.117Z,41.77
2018-03-18T01:04:22.372Z,39.35
2018-03-18T01:06:50.647Z,42.60
2018-03-18T01:09:18.896Z,47.10
2018-03-18T01:11:47.156Z,40.53
2018-03-18T01:14:15.415Z,40.20
2018-03-18T01:16:43.673Z,48.93
2018-03-18T01:19:11.941Z,45.60
2018-03-18T01:21:40.226Z,49.27
2018-03-18T01:24:08.477Z,48.27
2018-03-18T01:26:36.753Z,51.73
2018-03-18T01:29:05.013Z,50.53
2018-03-18T01:31:33.285Z,52.37
2018-03-18T01:34:01.551Z,54.53
2018-03-18T01:36:30.583Z,59.75
2018-03-18T01:38:58.861Z,50.57
2018-03-18T01:41:27.121Z,52.23
2018-03-18T01:43:55.402Z,47.42
2018-03-18T01:46:24.696Z,49.50
2018-03-18T01:48:53.276Z,50.50
2018-03-18T01:51:22.292Z,52.53
2018-03-18T01:53:50.558Z,49.10
2018-03-18T01:56:19.596Z,60.20
2018-03-18T01:58:47.856Z,58.30
2018-03-18T02:01:16.129Z,55.63
2018-03-18T02:03:45.164Z,60.10
2018-03-18T02:06:13.441Z,56.37
2018-03-18T02:08:41.726Z,51.87
2018-03-18T02:11:09.985Z,48.67
2018-03-18T02:13:38.246Z,50.10
2018-03-18T02:16:07.274Z,53.00
2018-03-18T02:18:35.524Z,46.70
2018-03-18T02:21:03.800Z,49.87
2018-03-18T02:23:32.821Z,42.60
2018-03-18T02:26:01.084Z,43.77
2018-03-18T02:28:30.117Z,42.80
2018-03-18T02:30:58.366Z,49.87
2018-03-18T02:33:26.642Z,41.20
2018-03-18T02:35:55.680Z,40.90
2018-03-18T02:38:23.956Z,43.78
2018-03-18T02:40:52.245Z,45.90
2018-03-18T02:43:21.225Z,43.75
2018-03-18T02:45:49.497Z,46.23
2018-03-18T02:48:17.744Z,46.53
2018-03-18T02:50:46.767Z,45.07
2018-03-18T02:53:15.034Z,45.87
2018-03-18T02:55:44.055Z,48.00
2018-03-18T02:58:12.316Z,48.37
2018-03-18T03:00:40.591Z,46.92
2018-03-18T03:03:09.606Z,48.53
2018-03-18T03:05:37.878Z,48.97
2018-03-18T03:08:06.132Z,44.47
2018-03-18T03:10:34.385Z,44.93
2018-03-18T03:13:02.655Z,43.00
2018-03-18T03:15:30.921Z,47.23
2018-03-18T03:17:59.172Z,45.50
2018-03-18T03:20:28.201Z,46.10
2018-03-18T03:22:56.451Z,45.47
2018-03-18T03:25:25.492Z,48.87
2018-03-18T03:27:53.755Z,48.93
2018-03-18T03:30:22.028Z,48.75
2018-03-18T03:32:50.278Z,44.17
2018-03-18T03:35:19.328Z,51.43
2018-03-18T03:37:47.572Z,46.80
2018-03-18T03:40:15.825Z,47.47
2018-03-18T03:42:44.088Z,48.03
2018-03-18T03:45:12.339Z,44.23
2018-03-18T03:47:40.608Z,47.22
2018-03-18T03:50:08.864Z,44.77
2018-03-18T03:52:37.885Z,43.20
2018-03-18T03:55:06.148Z,42.87
2018-03-18T03:57:34.433Z,43.03
2018-03-18T04:00:02.688Z,42.97
2018-03-18T04:02:30.961Z,43.53
2018-03-18T04:04:59.991Z,39.80
2018-03-18T04:07:28.244Z,35.97
2018-03-18T04:09:56.511Z,39.40
2018-03-18T04:12:24.764Z,45.43
2018-03-18T04:14:53.030Z,40.83
2018-03-18T04:17:21.293Z,41.70
2018-03-18T04:19:49.549Z,46.22
2018-03-18T04:22:18.364Z,40.60
2018-03-18T04:24:47.402Z,39.67
2018-03-18T04:27:15.668Z,42.43
2018-03-18T04:29:43.938Z,41.47
2018-03-18T04:32:12.192Z,38.77
2018-03-18T04:34:41.225Z,41.47
2018-03-18T04:37:09.517Z,40.20
2018-03-18T04:39:37.789Z,44.20
2018-03-18T04:42:06.052Z,43.97
2018-03-18T04:44:34.313Z,45.47
2018-03-18T04:47:03.332Z,41.03
2018-03-18T04:49:31.606Z,45.65
2018-03-18T04:52:00.691Z,42.00
2018-03-18T04:54:28.894Z,44.20
2018-03-18T04:56:58.284Z,44.78
2018-03-18T04:59:26.548Z,41.17
2018-03-18T05:01:55.584Z,40.22
2018-03-18T05:04:23.859Z,44.45
2018-03-18T05:06:52.119Z,42.13
2018-03-18T05:09:21.140Z,42.37
2018-03-18T05:11:49.477Z,41.20
2018-03-18T05:14:17.672Z,45.47
2018-03-18T05:16:46.693Z,40.83
2018-03-18T05:19:14.965Z,39.13
2018-03-18T05:21:43.215Z,40.63
2018-03-18T05:24:11.484Z,42.75
2018-03-18T05:26:39.757Z,36.88
2018-03-18T05:29:08.008Z,42.63
2018-03-18T05:31:36.280Z,44.57
2018-03-18T05:34:04.545Z,43.40
2018-03-18T05:36:33.576Z,43.90
2018-03-18T05:39:01.856Z,45.30
2018-03-18T05:41:30.112Z,43.28
2018-03-18T05:43:58.373Z,45.13
2018-03-18T05:46:27.403Z,41.80
2018-03-18T05:48:55.659Z,43.13
2018-03-18T05:51:24.695Z,43.70
2018-03-18T05:53:52.955Z,40.97
2018-03-18T05:56:21.229Z,46.07
2018-03-18T05:58:49.481Z,46.10
2018-03-18T06:01:17.754Z,41.70
2018-03-18T06:03:46.005Z,43.60
2018-03-18T06:06:14.276Z,43.67
2018-03-18T06:08:42.536Z,43.27
2018-03-18T06:11:10.860Z,43.80
2018-03-18T06:13:39.136Z,41.90
2018-03-18T06:16:07.394Z,43.87
2018-03-18T06:18:35.661Z,44.33
2018-03-18T06:21:03.913Z,41.80
2018-03-18T06:23:32.942Z,42.17
2018-03-18T06:26:01.192Z,42.08
2018-03-18T06:28:30.379Z,41.67
2018-03-18T06:30:58.636Z,43.10
2018-03-18T06:33:27.664Z,42.23
2018-03-18T06:35:57.116Z,44.23
2018-03-18T06:38:25.467Z,41.17
2018-03-18T06:40:53.879Z,44.07
2018-03-18T06:43:22.154Z,46.03
2018-03-18T06:45:50.416Z,41.60
2018-03-18T06:48:18.680Z,43.57
2018-03-18T06:50:47.148Z,41.20
2018-03-18T06:53:15.444Z,44.30
2018-03-18T06:55:44.514Z,41.08
2018-03-18T06:58:12.768Z,43.07
2018-03-18T07:00:41.088Z,47.07
2018-03-18T07:03:09.351Z,43.97
2018-03-18T07:05:37.876Z,42.83
2018-03-18T07:08:06.887Z,42.23
2018-03-18T07:10:35.197Z,42.87
2018-03-18T07:13:03.452Z,43.70
2018-03-18T07:15:31.706Z,43.73
2018-03-18T07:17:59.973Z,41.67
2018-03-18T07:20:28.304Z,39.42
2018-03-18T07:22:56.561Z,43.90
2018-03-18T07:25:25.582Z,46.22
2018-03-18T07:27:53.949Z,43.87
2018-03-18T07:30:22.346Z,46.40
2018-03-18T07:32:51.191Z,50.97
2018-03-18T07:35:19.514Z,46.70
2018-03-18T07:37:47.716Z,50.17
2018-03-18T07:40:16.026Z,49.33
2018-03-18T07:42:44.302Z,49.37
2018-03-18T07:45:12.557Z,53.97
2018-03-18T07:47:40.831Z,45.43
2018-03-18T07:50:09.088Z,43.43
2018-03-18T07:52:39.358Z,47.93
2018-03-18T07:55:07.620Z,43.97
2018-03-18T07:57:35.881Z,41.77
2018-03-18T08:00:04.144Z,45.53
2018-03-18T08:02:33.184Z,43.47
2018-03-18T08:05:01.437Z,45.27
2018-03-18T08:07:29.734Z,39.87
2018-03-18T08:09:57.961Z,43.47
2018-03-18T08:12:26.224Z,42.30
2018-03-18T08:14:54.481Z,42.63
2018-03-18T08:17:22.756Z,45.37
2018-03-18T08:19:51.025Z,41.30
2018-03-18T08:22:19.275Z,41.37
2018-03-18T08:24:47.541Z,38.97
2018-03-18T08:27:15.800Z,42.90
2018-03-18T08:29:44.060Z,41.07
2018-03-18T08:32:12.320Z,42.07
2018-03-18T08:34:40.584Z,37.60
2018-03-18T08:37:09.609Z,42.23
2018-03-18T08:39:37.864Z,40.17
2018-03-18T08:42:06.898Z,41.73
2018-03-18T08:44:35.156Z,44.50
2018-03-18T08:47:04.200Z,44.53
2018-03-18T08:49:32.471Z,40.63
2018-03-18T08:52:00.723Z,40.63
2018-03-18T08:54:29.944Z,41.20
2018-03-18T08:56:58.211Z,40.67
2018-03-18T08:59:26.480Z,40.12
2018-03-18T09:01:54.759Z,42.37
2018-03-18T09:04:25.040Z,39.15
2018-03-18T09:06:53.284Z,43.13
2018-03-18T09:09:21.567Z,36.85
2018-03-18T09:11:49.818Z,38.77
2018-03-18T09:14:18.837Z,40.50
2018-03-18T09:16:47.096Z,39.60
2018-03-18T09:19:16.122Z,35.97
2018-03-18T09:21:44.383Z,38.47
2018-03-18T09:24:13.404Z,37.78
2018-03-18T09:26:43.316Z,45.96
2018-03-18T09:29:11.833Z,38.97
2018-03-18T09:31:40.083Z,36.30
2018-03-18T09:34:08.331Z,38.33
2018-03-18T09:36:37.373Z,43.10
2018-03-18T09:39:05.629Z,41.37
2018-03-18T09:41:33.884Z,39.57
2018-03-18T09:44:02.918Z,36.03
2018-03-18T09:46:31.167Z,40.28
2018-03-18T09:49:00.230Z,39.20
2018-03-18T09:51:28.489Z,37.50
2018-03-18T09:53:56.753Z,40.88
2018-03-18T09:56:25.349Z,41.10
2018-03-18T09:58:53.593Z,37.17
2018-03-18T10:01:22.622Z,43.83
2018-03-18T10:03:50.912Z,40.40
2018-03-18T10:06:19.168Z,37.97
2018-03-18T10:08:48.205Z,36.17
2018-03-18T10:11:16.481Z,37.20
2018-03-18T10:13:44.732Z,35.70
2018-03-18T10:16:12.997Z,37.90
2018-03-18T10:18:42.024Z,36.80
2018-03-18T10:21:10.284Z,36.07
2018-03-18T10:23:38.552Z,33.33
2018-03-18T10:26:07.579Z,38.73
2018-03-18T10:28:35.855Z,34.20
2018-03-18T10:31:04.137Z,39.47
2018-03-18T10:33:32.396Z,39.87
2018-03-18T10:36:01.433Z,33.57
2018-03-18T10:38:29.785Z,38.87
2018-03-18T10:40:58.040Z,34.67
2018-03-18T10:43:26.308Z,34.30
2018-03-18T10:45:54.577Z,36.50
2018-03-18T10:48:22.826Z,34.60
2018-03-18T10:50:51.084Z,37.43
2018-03-18T10:53:20.112Z,35.47
2018-03-18T10:55:48.363Z,36.20
2018-03-18T10:58:17.392Z,34.70
2018-03-18T11:00:53.956Z,35.77
2018-03-18T11:03:23.544Z,37.83
2018-03-18T11:05:51.808Z,35.27
2018-03-18T11:08:20.843Z,34.78
2018-03-18T11:10:49.946Z,35.28
2018-03-18T11:13:18.192Z,33.13
2018-03-18T11:15:47.229Z,32.90
2018-03-18T11:18:15.479Z,33.07
2018-03-18T11:20:44.492Z,34.70
2018-03-18T11:23:12.749Z,33.20
2018-03-18T11:25:42.598Z,33.83
2018-03-18T11:28:10.870Z,30.53
2018-03-18T11:30:39.131Z,30.80
2018-03-18T11:33:08.171Z,28.48
2018-03-18T11:35:36.531Z,30.30
2018-03-18T11:38:04.791Z,30.47
2018-03-18T11:40:33.823Z,32.60
2018-03-18T11:43:02.108Z,27.85
2018-03-18T11:45:30.344Z,33.13
2018-03-18T11:47:59.375Z,29.90
2018-03-18T11:50:27.809Z,32.80
2018-03-18T11:52:56.116Z,32.67
2018-03-18T11:55:24.374Z,33.13
2018-03-18T11:57:52.652Z,30.23
2018-03-18T12:00:20.896Z,31.10
2018-03-18T12:02:49.155Z,31.08
2018-03-18T12:05:17.516Z,32.47
2018-03-18T12:07:46.533Z,32.43
2018-03-18T12:10:14.798Z,30.50
2018-03-18T12:12:43.054Z,31.35
2018-03-18T12:15:11.332Z,30.87
2018-03-18T12:17:41.599Z,33.03
2018-03-18T12:20:09.839Z,31.73
2018-03-18T12:22:38.099Z,33.20
2018-03-18T12:25:06.356Z,30.80
2018-03-18T12:27:34.604Z,29.47
2018-03-18T12:30:03.638Z,32.63
2018-03-18T12:32:31.900Z,30.83
2018-03-18T12:35:00.165Z,27.33
2018-03-18T12:37:28.434Z,35.75
2018-03-18T12:40:14.895Z,27.80
2018-03-18T12:43:00.696Z,28.40
2018-03-18T12:45:28.960Z,27.27
2018-03-18T12:47:57.231Z,32.53
2018-03-18T12:50:25.871Z,30.10
2018-03-18T12:52:54.139Z,25.57
2018-03-18T12:55:23.171Z,26.93
2018-03-18T12:57:51.418Z,31.87
2018-03-18T13:00:20.457Z,27.33
2018-03-18T13:02:48.704Z,24.23
2018-03-18T13:05:17.728Z,29.57
2018-03-18T13:07:45.991Z,28.37
2018-03-18T13:10:14.257Z,30.70
2018-03-18T13:12:43.277Z,26.07
2018-03-18T13:15:11.540Z,29.67
2018-03-18T13:17:40.568Z,28.98
2018-03-18T13:20:08.820Z,27.40
2018-03-18T13:22:37.668Z,28.85
2018-03-18T13:25:05.925Z,28.67
2018-03-18T13:27:34.176Z,31.50
2018-03-18T13:30:02.429Z,26.67
2018-03-18T13:32:31.879Z,28.45
2018-03-18T13:35:00.140Z,27.60
2018-03-18T13:37:28.410Z,28.00
2018-03-18T13:39:57.431Z,31.97
2018-03-18T13:42:25.695Z,26.07
2018-03-18T13:44:54.733Z,26.90
2018-03-18T13:47:23.009Z,24.10
2018-03-18T13:49:51.252Z,26.20
2018-03-18T13:52:20.277Z,25.05
2018-03-18T13:54:48.535Z,25.88
2018-03-18T13:57:16.792Z,27.23
2018-03-18T13:59:45.120Z,26.03
2018-03-18T14:02:13.399Z,25.03
2018-03-18T14:04:42.908Z,26.10
2018-03-18T14:07:11.179Z,24.37
2018-03-18T14:09:39.656Z,27.23
2018-03-18T14:12:08.672Z,26.93
2018-03-18T14:14:36.924Z,28.38
2018-03-18T14:17:05.947Z,27.60
2018-03-18T14:19:34.200Z,24.67
2018-03-18T14:22:03.212Z,38.70
2018-03-18T14:24:31.768Z,26.27
2018-03-18T14:27:00.022Z,24.73
2018-03-18T14:29:28.276Z,27.53
2018-03-18T14:31:56.541Z,31.98
2018-03-18T14:34:24.788Z,36.87
2018-03-18T14:36:53.045Z,28.80
2018-03-18T14:39:21.292Z,27.03
2018-03-18T14:41:49.553Z,25.70
2018-03-18T14:44:18.572Z,29.17
2018-03-18T14:46:46.913Z,27.73
2018-03-18T14:49:15.199Z,26.65
2018-03-18T14:51:43.464Z,26.37
2018-03-18T14:54:11.737Z,26.73
2018-03-18T14:56:39.992Z,28.90
2018-03-18T14:59:08.265Z,27.00
2018-03-18T15:01:36.564Z,27.53
2018-03-18T15:04:04.780Z,26.57
2018-03-18T15:06:34.073Z,27.15
2018-03-18T15:09:02.331Z,27.50
2018-03-18T15:11:30.613Z,27.85
2018-03-18T15:13:58.864Z,27.87
2018-03-18T15:16:27.122Z,28.00
2018-03-18T15:18:56.145Z,28.67
2018-03-18T15:21:24.400Z,30.43
2018-03-18T15:23:53.441Z,27.17
2018-03-18T15:26:21.694Z,27.63
2018-03-18T15:28:49.965Z,29.27
2018-03-18T15:31:18.230Z,27.30
2018-03-18T15:33:47.274Z,30.67
2018-03-18T15:36:15.536Z,31.27
2018-03-18T15:38:43.800Z,29.05
2018-03-18T15:41:12.069Z,26.93
2018-03-18T15:43:41.102Z,27.43
2018-03-18T15:46:09.525Z,25.98
2018-03-18T15:48:37.782Z,29.45
2018-03-18T15:51:06.063Z,30.63
2018-03-18T15:53:34.314Z,29.73
2018-03-18T15:56:02.590Z,26.45
2018-03-18T15:58:30.840Z,29.07
2018-03-18T16:00:59.101Z,29.27
2018-03-18T16:03:27.364Z,27.47
2018-03-18T16:05:55.620Z,27.60
2018-03-18T16:08:23.900Z,25.37
2018-03-18T16:10:52.153Z,30.33
2018-03-18T16:13:21.183Z,30.20
2018-03-18T16:15:49.468Z,30.97
2018-03-18T16:18:18.004Z,28.90
2018-03-18T16:20:46.277Z,26.83
2018-03-18T16:23:14.592Z,32.47
2018-03-18T16:25:42.862Z,28.27
2018-03-18T16:28:11.886Z,31.23
2018-03-18T16:30:57.588Z,27.73
2018-03-18T16:33:25.852Z,28.90
2018-03-18T16:35:54.182Z,27.77
2018-03-18T16:38:22.447Z,29.50
2018-03-18T16:40:50.693Z,26.07
2018-03-18T16:43:18.956Z,28.13
2018-03-18T16:45:47.212Z,30.23
2018-03-18T16:48:15.517Z,25.43
2018-03-18T16:50:43.779Z,30.80
2018-03-18T16:53:12.045Z,30.70
2018-03-18T16:55:40.294Z,26.23
2018-03-18T16:58:08.552Z,32.97
2018-03-18T17:00:36.923Z,30.53
2018-03-18T17:03:05.176Z,26.97
2018-03-18T17:05:33.429Z,22.90
2018-03-18T17:08:01.693Z,26.53
2018-03-18T17:10:29.960Z,28.20
2018-03-18T17:12:58.229Z,26.40
2018-03-18T17:15:27.189Z,26.95
2018-03-18T17:17:55.452Z,28.97
2018-03-18T17:20:23.721Z,39.28
2018-03-18T17:22:51.976Z,30.00
2018-03-18T17:25:20.237Z,28.90
2018-03-18T17:27:48.501Z,29.30
2018-03-18T17:30:17.516Z,29.23
2018-03-18T17:32:45.796Z,26.77
2018-03-18T17:35:14.827Z,29.37
2018-03-18T17:37:43.088Z,32.37
2018-03-18T17:40:11.352Z,30.35
2018-03-18T17:42:40.385Z,26.98
2018-03-18T17:45:26.256Z,31.50
2018-03-18T17:51:21.596Z,34.10
2018-03-18T17:54:07.368Z,33.87
2018-03-18T17:56:38.144Z,33.87
2018-03-18T17:59:07.176Z,32.40
2018-03-18T18:01:35.432Z,31.53
2018-03-18T18:04:03.705Z,31.95
2018-03-18T18:06:32.733Z,36.50
2018-03-18T18:09:00.983Z,30.05
2018-03-18T18:11:30.002Z,29.93
2018-03-18T18:13:58.273Z,31.27
2018-03-18T18:16:26.532Z,31.97
2018-03-18T18:18:55.558Z,28.85
2018-03-18T18:21:23.814Z,33.70
2018-03-18T18:23:52.849Z,34.33
2018-03-18T18:26:21.114Z,31.40
2018-03-18T18:28:49.403Z,30.08
2018-03-18T18:31:17.660Z,33.90
2018-03-18T18:33:47.961Z,27.07
2018-03-18T18:36:16.213Z,31.13
2018-03-18T18:38:44.472Z,32.15
2018-03-18T18:41:12.751Z,33.63
2018-03-18T18:43:41.039Z,32.43
2018-03-18T18:46:10.136Z,30.27
2018-03-18T18:48:38.392Z,32.37
2018-03-18T18:51:07.424Z,33.37
2018-03-18T18:53:35.685Z,30.77
2018-03-18T18:56:05.568Z,31.40
2018-03-18T18:58:33.858Z,32.87
2018-03-18T19:01:02.947Z,29.87
2018-03-18T19:03:31.261Z,31.58
2018-03-18T19:06:00.436Z,30.85
2018-03-18T19:08:29.517Z,28.00
2018-03-18T19:10:57.793Z,34.90
2018-03-18T19:13:26.170Z,31.33
2018-03-18T19:15:54.544Z,33.03
2018-03-18T19:18:23.672Z,22.23
2018-03-18T19:20:51.986Z,29.53
2018-03-18T19:23:20.949Z,26.77
2018-03-18T19:25:49.216Z,23.38
2018-03-18T19:28:17.486Z,25.63
2018-03-18T19:30:45.749Z,29.63
2018-03-18T19:33:14.285Z,26.30
2018-03-18T19:35:43.313Z,30.23
2018-03-18T19:38:11.772Z,28.02
2018-03-18T19:40:40.801Z,36.93
2018-03-18T19:43:09.104Z,34.15
2018-03-18T19:45:37.364Z,28.93
2018-03-18T19:48:05.647Z,34.50
2018-03-18T19:50:34.481Z,29.83
2018-03-18T19:53:02.787Z,30.45
2018-03-18T19:55:31.055Z,32.53
2018-03-18T19:58:00.609Z,33.43
2018-03-18T20:00:28.868Z,29.33
2018-03-18T20:02:57.910Z,27.30
2018-03-18T20:05:26.196Z,29.77
2018-03-18T20:07:54.487Z,32.97
2018-03-18T20:10:22.833Z,32.77
2018-03-18T20:12:51.111Z,30.88
2018-03-18T20:15:19.382Z,30.00
2018-03-18T20:17:47.655Z,27.77
2018-03-18T20:20:16.835Z,26.10
2018-03-18T20:22:45.084Z,26.73
2018-03-18T20:25:13.436Z,32.28
2018-03-18T20:27:41.742Z,25.73
2018-03-18T20:30:10.097Z,20.53
2018-03-18T20:32:39.780Z,18.98
2018-03-18T20:35:08.809Z,22.57
2018-03-18T20:37:37.078Z,21.83
2018-03-18T20:40:05.344Z,30.50
2018-03-18T20:42:34.409Z,17.30
2018-03-18T20:45:02.696Z,21.90
2018-03-18T20:47:31.289Z,25.00
2018-03-18T20:50:06.480Z,28.95
2018-03-18T20:52:34.731Z,26.47
2018-03-18T20:55:03.760Z,34.20
2018-03-18T20:57:32.021Z,34.53
2018-03-18T21:00:00.273Z,25.23
2018-03-18T21:02:29.832Z,22.85
2018-03-18T21:04:58.092Z,23.73
2018-03-18T21:07:26.368Z,26.67
2018-03-18T21:09:54.633Z,26.23
2018-03-18T21:12:23.680Z,31.57
2018-03-18T21:14:51.938Z,28.90
2018-03-18T21:17:20.204Z,25.00
2018-03-18T21:19:49.311Z,26.03
2018-03-18T21:22:17.584Z,29.60
2018-03-18T21:24:46.612Z,33.73
2018-03-18T21:27:14.889Z,32.38
2018-03-18T21:29:43.144Z,31.63
2018-03-18T21:32:11.417Z,34.15
2018-03-18T21:34:40.660Z,28.83
2018-03-18T21:37:08.924Z,30.37
2018-03-18T21:39:37.187Z,26.48
2018-03-18T21:42:06.204Z,28.50
2018-03-18T21:44:35.223Z,29.70
2018-03-18T21:47:03.568Z,26.93
2018-03-18T21:49:31.820Z,28.50
2018-03-18T21:52:00.143Z,31.33
2018-03-18T21:54:28.390Z,30.00
2018-03-18T21:56:57.430Z,31.03
2018-03-18T21:59:25.702Z,31.95
2018-03-18T22:01:53.978Z,31.75
2018-03-18T22:04:22.236Z,29.53
2018-03-18T22:06:51.268Z,24.87
2018-03-18T22:09:19.541Z,30.98
2018-03-18T22:11:47.793Z,30.03
2018-03-18T22:14:16.833Z,30.33
2018-03-18T22:16:45.094Z,28.83
2018-03-18T22:19:13.592Z,26.10
2018-03-18T22:21:41.834Z,25.37
2018-03-18T22:24:10.900Z,31.53
2018-03-18T22:26:39.192Z,31.27
2018-03-18T22:29:07.476Z,27.03
2018-03-18T22:31:35.714Z,24.43
2018-03-18T22:34:03.977Z,17.20
2018-03-18T22:36:32.244Z,30.53
2018-03-18T22:39:01.272Z,30.52
2018-03-18T22:41:29.535Z,29.93
2018-03-18T22:43:57.779Z,29.00
2018-03-18T22:46:26.048Z,33.80
2018-03-18T22:48:54.314Z,31.37
2018-03-18T22:51:22.591Z,33.22
2018-03-18T22:53:50.843Z,29.20
2018-03-18T22:56:19.116Z,33.37
2018-03-18T22:58:47.383Z,30.53
2018-03-18T23:01:15.636Z,31.25
2018-03-18T23:03:43.888Z,20.30
2018-03-18T23:06:12.159Z,28.60
2018-03-18T23:08:40.427Z,33.72
2018-03-18T23:11:08.705Z,32.70
2018-03-18T23:13:36.969Z,29.40
2018-03-18T23:16:06.008Z,31.27
2018-03-18T23:18:34.261Z,29.50
2018-03-18T23:21:02.537Z,24.33
2018-03-18T23:23:30.788Z,37.03
2018-03-18T23:25:59.039Z,30.43
2018-03-18T23:28:27.307Z,29.55
2018-03-18T23:30:55.570Z,30.30
2018-03-18T23:33:23.832Z,35.20
2018-03-18T23:35:52.085Z,31.03
2018-03-18T23:38:20.340Z,32.83
2018-03-18T23:40:48.612Z,32.73
2018-03-18T23:43:16.864Z,32.17
2018-03-18T23:45:45.119Z,35.17
2018-03-18T23:48:14.152Z,32.03
2018-03-18T23:50:48.387Z,32.90
2018-03-18T23:53:16.655Z,39.40
2018-03-18T23:55:44.919Z,34.33
2018-03-18T23:58:13.188Z,30.23
